Time;durP1;ratioP1;P1;durP2;ratioP2;P2;SDS_P1;SDS_P2;PMS_P1;PMS_P2;Temp;Humidity;BMP_temperature;BMP_pressure;BME280_temperature;BME280_humidity;BME280_pressure;Samples;Min_cycle;Max_cycle;Signal;HPM_P1;HPM_P2
2023/01/02 00:01:15;;;;;;;2.03;0.88;;;17.00;74.40;;;;;;7407547;19;20269;-64
2023/01/02 00:03:46;;;;;;;2.08;0.68;;;17.00;74.40;;;;;;7405780;19;19918;-64
2023/01/02 00:06:18;;;;;;;3.05;1.50;;;17.00;74.40;;;;;;7407319;19;20249;-64
2023/01/02 00:08:47;;;;;;;1.83;0.40;;;17.00;74.40;;;;;;7407279;19;19978;-64
2023/01/02 00:11:16;;;;;;;2.17;0.55;;;16.90;74.40;;;;;;7407271;19;19938;-64
2023/01/02 00:13:45;;;;;;;1.80;0.52;;;16.90;74.40;;;;;;7409664;19;19923;-64
2023/01/02 00:16:14;;;;;;;2.67;0.40;;;16.90;74.40;;;;;;7406937;19;19910;-64
2023/01/02 00:18:43;;;;;;;1.52;0.52;;;16.90;74.50;;;;;;7407086;19;19941;-64
2023/01/02 00:21:26;;;;;;;1.77;1.05;;;16.90;74.40;;;;;;7404492;19;19962;-64
2023/01/02 00:23:55;;;;;;;2.00;0.90;;;16.90;74.50;;;;;;7405829;19;19915;-64
2023/01/02 00:26:25;;;;;;;2.47;1.00;;;16.90;74.50;;;;;;7406323;19;19930;-64
2023/01/02 00:28:54;;;;;;;3.03;1.40;;;16.90;74.50;;;;;;7407533;19;19914;-64
2023/01/02 00:31:23;;;;;;;1.90;0.43;;;16.80;74.50;;;;;;7406941;19;19934;-64
2023/01/02 00:33:52;;;;;;;1.40;0.45;;;16.80;74.50;;;;;;7406352;19;19981;-64
2023/01/02 00:36:22;;;;;;;2.25;0.70;;;16.80;74.50;;;;;;7407419;19;19927;-64
2023/01/02 00:38:56;;;;;;;2.35;0.70;;;16.80;74.50;;;;;;7406474;19;20259;-64
2023/01/02 00:41:25;;;;;;;2.00;0.63;;;16.80;74.50;;;;;;7406316;19;19914;-64
2023/01/02 00:43:54;;;;;;;2.10;0.85;;;16.80;74.60;;;;;;7409283;19;19975;-64
2023/01/02 00:46:23;;;;;;;1.52;0.70;;;16.80;74.60;;;;;;7406351;19;19915;-64
2023/01/02 00:48:53;;;;;;;1.40;0.63;;;16.80;74.60;;;;;;7406373;19;20341;-64
2023/01/02 00:51:23;;;;;;;1.77;0.40;;;16.80;74.60;;;;;;7405792;19;19915;-64
2023/01/02 00:53:54;;;;;;;2.03;0.43;;;16.80;74.60;;;;;;7406502;19;19911;-64
2023/01/02 00:56:23;;;;;;;2.55;0.75;;;16.70;74.50;;;;;;7406131;19;20275;-64
2023/01/02 00:58:52;;;;;;;2.25;0.98;;;16.70;74.60;;;;;;7406350;19;20559;-64
2023/01/02 01:01:21;;;;;;;2.40;0.63;;;16.70;74.60;;;;;;7406070;19;19951;-64
2023/01/02 01:03:51;;;;;;;2.90;0.70;;;16.70;74.60;;;;;;7402225;19;19910;-64
2023/01/02 01:06:20;;;;;;;2.05;0.47;;;16.70;74.60;;;;;;7405888;19;19915;-63
2023/01/02 01:08:49;;;;;;;2.47;1.10;;;16.70;74.60;;;;;;7405671;19;19915;-63
2023/01/02 01:11:21;;;;;;;;;;;16.70;74.60;;;;;;7409682;19;19922;-64
2023/01/02 01:13:50;;;;;;;1.63;0.60;;;16.60;74.60;;;;;;7405798;19;19966;-64
2023/01/02 01:16:21;;;;;;;1.80;0.80;;;16.70;74.70;;;;;;7405275;19;19918;-64
2023/01/02 01:18:50;;;;;;;1.60;0.77;;;16.60;74.60;;;;;;7406385;19;19946;-64
2023/01/02 01:21:21;;;;;;;2.15;0.98;;;16.60;74.60;;;;;;7405275;19;19935;-64
2023/01/02 01:23:52;;;;;;;1.95;0.70;;;16.60;74.60;;;;;;7404819;19;20332;-64
2023/01/02 01:26:25;;;;;;;2.08;0.50;;;16.60;74.60;;;;;;7404392;19;19933;-63
2023/01/02 01:28:55;;;;;;;1.63;0.68;;;16.60;74.60;;;;;;7405294;19;19914;-64
2023/01/02 01:31:24;;;;;;;;;;;16.60;74.60;;;;;;7406753;19;19915;-64
2023/01/02 01:33:53;;;;;;;1.58;0.43;;;16.60;74.60;;;;;;7404536;19;20353;-64
2023/01/02 01:36:25;;;;;;;1.60;0.47;;;16.60;74.60;;;;;;7402981;19;19947;-63
2023/01/02 01:38:55;;;;;;;1.02;0.47;;;16.70;74.70;;;;;;7404975;19;19922;-63
2023/01/02 01:41:27;;;;;;;1.83;0.68;;;16.70;74.60;;;;;;7407143;19;19918;-63
2023/01/02 01:43:58;;;;;;;1.85;0.52;;;16.70;74.60;;;;;;7404088;19;20361;-63
2023/01/02 01:46:33;;;;;;;2.55;0.70;;;16.70;74.60;;;;;;7403445;19;19918;-64
2023/01/02 01:49:07;;;;;;;1.27;0.50;;;16.70;74.70;;;;;;7403090;19;20299;-63
2023/01/02 01:51:39;;;;;;;1.83;0.43;;;16.80;74.70;;;;;;7403881;19;19914;-64
2023/01/02 01:54:11;;;;;;;1.92;0.68;;;16.80;74.70;;;;;;7405038;19;19923;-64
2023/01/02 01:56:48;;;;;;;1.73;0.43;;;16.80;74.70;;;;;;7404276;19;19911;-63
2023/01/02 01:59:19;;;;;;;1.30;0.32;;;16.90;74.70;;;;;;7404746;19;19938;-64
2023/01/02 02:01:51;;;;;;;2.03;1.23;;;16.90;74.70;;;;;;7404042;19;19922;-63
2023/01/02 02:04:21;;;;;;;1.85;0.85;;;17.00;74.70;;;;;;7402334;19;19914;-64
2023/01/02 02:06:51;;;;;;;1.50;0.82;;;17.00;74.60;;;;;;7404409;19;19925;-63
2023/01/02 02:09:25;;;;;;;1.92;0.80;;;17.00;74.60;;;;;;7403836;19;20324;-64
2023/01/02 02:12:00;;;;;;;1.80;0.80;;;17.00;74.50;;;;;;7404047;19;19925;-64
2023/01/02 02:14:29;;;;;;;2.15;0.80;;;17.00;74.60;;;;;;7403528;19;20248;-64
2023/01/02 02:17:06;;;;;;;1.88;0.60;;;17.00;74.50;;;;;;7403362;19;20336;-63
2023/01/02 02:20:14;;;;;;;1.27;0.50;;;17.10;74.50;;;;;;7403690;19;19918;-64
2023/01/02 02:23:15;;;;;;;1.30;0.52;;;17.00;74.50;;;;;;7402446;19;19922;-64
2023/01/02 02:26:03;;;;;;;1.70;1.00;;;17.00;74.50;;;;;;7402106;19;19918;-64
2023/01/02 02:29:07;;;;;;;1.73;0.52;;;17.10;74.50;;;;;;7403585;19;19921;-64
2023/01/02 02:31:49;;;;;;;1.45;0.28;;;17.00;74.50;;;;;;7403294;19;19919;-64
2023/01/02 02:34:24;;;;;;;2.45;1.00;;;17.00;74.40;;;;;;7403016;19;19915;-64
2023/01/02 02:37:03;;;;;;;1.50;0.77;;;17.00;74.40;;;;;;7403554;19;19906;-64
2023/01/02 02:39:43;;;;;;;1.58;0.35;;;17.00;74.40;;;;;;7404581;19;19923;-64
2023/01/02 02:42:20;;;;;;;2.67;1.02;;;17.00;74.50;;;;;;7403286;19;19925;-64
2023/01/02 02:45:00;;;;;;;2.28;0.75;;;17.00;74.40;;;;;;7405119;19;19927;-64
2023/01/02 02:47:37;;;;;;;1.58;0.65;;;17.00;74.50;;;;;;7409648;19;19914;-64
2023/01/02 02:50:14;;;;;;;2.05;0.40;;;16.90;74.50;;;;;;7409331;19;19919;-64
2023/01/02 02:52:48;;;;;;;1.63;0.57;;;16.90;74.50;;;;;;7409324;19;19932;-64
2023/01/02 02:55:22;;;;;;;2.00;1.27;;;16.90;74.50;;;;;;7409290;19;20275;-64
2023/01/02 02:57:53;;;;;;;1.50;0.50;;;16.90;74.50;;;;;;7409099;19;19923;-64
2023/01/02 03:00:24;;;;;;;1.38;0.40;;;16.90;74.50;;;;;;7409298;19;19935;-63
2023/01/02 03:02:56;;;;;;;3.47;1.17;;;16.90;74.60;;;;;;7408984;19;19916;-64
2023/01/02 03:05:33;;;;;;;1.55;0.43;;;16.90;74.60;;;;;;7407322;19;19933;-64
2023/01/02 03:08:10;;;;;;;1.77;0.60;;;16.90;74.70;;;;;;7408847;19;19918;-65
2023/01/02 03:10:48;;;;;;;2.03;0.50;;;16.80;74.60;;;;;;7410034;19;19982;-64
2023/01/02 03:13:26;;;;;;;1.70;0.95;;;16.80;74.70;;;;;;7408889;19;19914;-64
2023/01/02 03:16:02;;;;;;;2.42;1.23;;;16.80;74.70;;;;;;7408525;19;20529;-64
2023/01/02 03:18:47;;;;;;;1.70;0.63;;;16.80;74.70;;;;;;7408736;19;19918;-64
2023/01/02 03:21:23;;;;;;;1.60;0.50;;;16.80;74.70;;;;;;7408408;19;19919;-64
2023/01/02 03:23:51;;;;;;;;;;;16.80;74.70;;;;;;7410204;19;19915;-64
2023/01/02 03:26:27;;;;;;;1.40;0.70;;;16.80;74.80;;;;;;7407197;19;20272;-64
2023/01/02 03:29:00;;;;;;;2.22;0.63;;;16.80;74.80;;;;;;7407198;19;19974;-64
2023/01/02 03:31:31;;;;;;;2.72;1.02;;;16.80;74.80;;;;;;7408975;19;19925;-64
2023/01/02 03:34:08;;;;;;;1.48;0.80;;;16.70;74.80;;;;;;7407801;19;19940;-64
2023/01/02 03:36:40;;;;;;;1.38;0.73;;;16.70;74.80;;;;;;7408320;19;19942;-64
2023/01/02 03:39:13;;;;;;;1.70;1.00;;;16.70;74.80;;;;;;7408595;19;19938;-63
2023/01/02 03:41:46;;;;;;;2.00;0.57;;;16.70;74.80;;;;;;7411440;19;19937;-64
2023/01/02 03:44:20;;;;;;;1.50;0.85;;;16.70;74.90;;;;;;7407118;19;20305;-64
2023/01/02 03:46:52;;;;;;;1.70;0.90;;;16.70;74.90;;;;;;7407875;19;20304;-64
2023/01/02 03:49:28;;;;;;;2.10;1.10;;;16.70;74.90;;;;;;7408318;19;19921;-64
2023/01/02 03:51:58;;;;;;;1.95;1.17;;;16.70;74.90;;;;;;7407473;19;19918;-64
2023/01/02 03:54:28;;;;;;;1.98;0.68;;;16.70;75.00;;;;;;7407654;19;19918;-64
2023/01/02 03:57:03;;;;;;;1.67;0.40;;;16.60;74.90;;;;;;7407913;19;19922;-64
2023/01/02 03:59:43;;;;;;;2.40;0.60;;;16.60;75.00;;;;;;7406274;19;19985;-64
2023/01/02 04:02:16;;;;;;;1.88;0.50;;;16.60;75.00;;;;;;7408036;19;19987;-64
2023/01/02 04:04:55;;;;;;;2.00;1.00;;;16.60;75.00;;;;;;7406236;19;19911;-64
2023/01/02 04:07:32;;;;;;;3.10;0.65;;;16.60;75.00;;;;;;7407826;19;19926;-64
2023/01/02 04:10:02;;;;;;;2.35;1.13;;;16.70;75.10;;;;;;7410445;19;19923;-64
2023/01/02 04:12:35;;;;;;;2.45;0.45;;;16.60;75.10;;;;;;7407396;19;19918;-64
2023/01/02 04:15:08;;;;;;;1.73;0.35;;;16.60;75.10;;;;;;7407186;19;19921;-64
2023/01/02 04:17:42;;;;;;;1.40;0.30;;;16.70;75.20;;;;;;7407301;19;19918;-64
2023/01/02 04:20:19;;;;;;;1.98;0.93;;;16.70;75.20;;;;;;7407082;19;19930;-64
2023/01/02 04:22:53;;;;;;;1.88;0.60;;;16.70;75.20;;;;;;7407468;19;19914;-64
2023/01/02 04:25:24;;;;;;;2.55;0.75;;;16.70;75.20;;;;;;7405460;19;19918;-64
2023/01/02 04:27:56;;;;;;;3.40;0.63;;;16.80;75.20;;;;;;7406971;19;19928;-64
2023/01/02 04:30:25;;;;;;;1.48;0.38;;;16.80;75.30;;;;;;7406717;19;20019;-64
2023/01/02 04:32:56;;;;;;;2.35;1.00;;;16.80;75.20;;;;;;7406762;19;19914;-64
2023/01/02 04:35:31;;;;;;;2.78;1.02;;;16.90;75.30;;;;;;7408533;19;20253;-63
2023/01/02 04:38:08;;;;;;;1.25;0.30;;;16.90;75.30;;;;;;7406674;19;19949;-63
2023/01/02 04:40:38;;;;;;;1.75;0.85;;;17.00;75.30;;;;;;7410831;19;20570;-64
2023/01/02 04:43:13;;;;;;;2.20;1.30;;;17.00;75.30;;;;;;7406866;19;19970;-64
2023/01/02 04:45:42;;;;;;;2.97;0.63;;;17.00;75.30;;;;;;7405080;19;19970;-64
2023/01/02 04:48:11;;;;;;;3.17;1.40;;;17.00;75.20;;;;;;7406531;19;19915;-64
2023/01/02 04:50:43;;;;;;;1.77;1.05;;;17.10;75.20;;;;;;7406103;19;19934;-64
2023/01/02 04:53:13;;;;;;;1.60;0.60;;;17.00;75.10;;;;;;7406352;19;19919;-64
2023/01/02 04:55:43;;;;;;;1.70;1.00;;;17.10;75.10;;;;;;7406457;19;20088;-64
2023/01/02 04:58:12;;;;;;;2.55;0.60;;;17.10;75.20;;;;;;7406137;19;19922;-63
2023/01/02 05:00:41;;;;;;;2.00;1.00;;;17.10;75.10;;;;;;7405831;19;19919;-64
2023/01/02 05:03:10;;;;;;;2.45;0.47;;;17.10;75.10;;;;;;7405493;19;19915;-64
2023/01/02 05:05:39;;;;;;;2.10;0.63;;;17.10;75.10;;;;;;7404917;19;19962;-64
2023/01/02 05:08:13;;;;;;;2.25;0.70;;;17.10;75.10;;;;;;7404614;19;19917;-64
2023/01/02 05:10:43;;;;;;;1.40;0.30;;;17.10;75.10;;;;;;7408425;19;19914;-64
2023/01/02 05:13:17;;;;;;;2.30;0.55;;;17.10;75.10;;;;;;7406182;19;19917;-64
2023/01/02 05:15:46;;;;;;;3.05;0.52;;;17.00;75.00;;;;;;7405890;19;19927;-63
2023/01/02 05:18:15;;;;;;;1.35;0.40;;;17.00;75.00;;;;;;7405562;19;20312;-64
2023/01/02 05:20:45;;;;;;;1.30;0.45;;;17.00;75.00;;;;;;7405514;19;19932;-64
2023/01/02 05:25:58;;;;;;;1.40;0.40;;;17.00;75.10;;;;;;7403807;19;19929;-64
2023/01/02 05:28:27;;;;;;;2.25;0.63;;;17.00;75.10;;;;;;7404881;19;19918;-63
2023/01/02 05:31:16;;;;;;;1.45;0.82;;;17.00;75.10;;;;;;7404118;19;19914;-64
2023/01/02 05:34:05;;;;;;;1.63;0.52;;;17.00;75.10;;;;;;7403175;19;19915;-64
2023/01/02 05:36:54;;;;;;;1.70;1.02;;;17.00;75.20;;;;;;7403418;19;20302;-64
2023/01/02 05:39:46;;;;;;;2.17;0.40;;;17.00;75.20;;;;;;7403460;19;19915;-64
2023/01/02 05:42:35;;;;;;;1.52;0.40;;;16.90;75.20;;;;;;7402977;19;19942;-64
2023/01/02 05:45:24;;;;;;;1.38;0.65;;;16.90;75.20;;;;;;7401811;19;20259;-64
2023/01/02 05:47:53;;;;;;;2.13;0.45;;;16.90;75.30;;;;;;7405025;19;19918;-64
2023/01/02 05:50:22;;;;;;;1.77;0.85;;;16.90;75.30;;;;;;7404576;19;20272;-64
2023/01/02 05:52:51;;;;;;;2.28;0.63;;;16.90;75.30;;;;;;7404384;19;19918;-64
2023/01/02 05:55:23;;;;;;;3.30;0.98;;;16.90;75.30;;;;;;7402605;19;19923;-64
2023/01/02 05:57:58;;;;;;;2.97;0.70;;;16.90;75.40;;;;;;7404262;19;19914;-64
2023/01/02 06:00:29;;;;;;;2.05;0.80;;;16.80;75.30;;;;;;7404485;19;20284;-64
2023/01/02 06:02:58;;;;;;;1.60;0.40;;;16.90;75.50;;;;;;7403984;19;19984;-63
2023/01/02 06:05:43;;;;;;;2.63;0.52;;;16.80;75.40;;;;;;7402876;19;19919;-63
2023/01/02 06:08:12;;;;;;;1.60;0.70;;;16.80;75.50;;;;;;7404186;19;20324;-63
2023/01/02 06:10:54;;;;;;;2.50;1.27;;;16.80;75.50;;;;;;7404083;19;19918;-64
2023/01/02 06:13:23;;;;;;;2.50;0.93;;;16.80;75.50;;;;;;7404021;19;19915;-64
2023/01/02 06:15:52;;;;;;;2.20;1.10;;;16.80;75.50;;;;;;7403730;19;19910;-64
2023/01/02 06:18:21;;;;;;;1.60;0.50;;;16.80;75.50;;;;;;7403487;19;19922;-64
2023/01/02 06:20:51;;;;;;;1.67;0.52;;;16.80;75.60;;;;;;7410201;19;20360;-64
2023/01/02 06:23:20;;;;;;;1.67;0.50;;;16.80;75.60;;;;;;7410134;19;20379;-64
2023/01/02 06:25:53;;;;;;;2.10;1.05;;;16.70;75.50;;;;;;7408708;19;19926;-64
2023/01/02 06:28:24;;;;;;;2.22;0.70;;;16.70;75.60;;;;;;7410271;19;20006;-63
2023/01/02 06:30:53;;;;;;;2.08;0.32;;;16.80;75.60;;;;;;7410288;19;19939;-64
2023/01/02 06:33:22;;;;;;;1.90;0.38;;;16.70;75.60;;;;;;7409660;19;19914;-64
2023/01/02 06:35:59;;;;;;;1.30;0.40;;;16.70;75.70;;;;;;7410288;19;20340;-64
2023/01/02 06:38:28;;;;;;;2.25;0.50;;;16.70;75.60;;;;;;7411887;19;20154;-64
2023/01/02 06:41:04;;;;;;;2.17;0.70;;;16.70;75.70;;;;;;7410155;19;19942;-64
2023/01/02 06:43:46;;;;;;;2.40;0.55;;;16.70;75.70;;;;;;7409056;19;19924;-64
2023/01/02 06:46:17;;;;;;;2.55;0.40;;;16.70;75.70;;;;;;7407972;19;20339;-64
2023/01/02 06:48:46;;;;;;;2.40;0.43;;;16.70;75.70;;;;;;7408574;19;19915;-64
2023/01/02 06:51:25;;;;;;;1.23;0.40;;;16.70;75.80;;;;;;7409432;19;20006;-64
2023/01/02 06:53:58;;;;;;;1.98;1.25;;;16.60;75.70;;;;;;7409815;19;19938;-64
2023/01/02 06:56:30;;;;;;;2.08;0.52;;;16.70;75.80;;;;;;7409626;19;19911;-64
2023/01/02 06:59:01;;;;;;;1.52;0.35;;;16.60;75.80;;;;;;7409238;19;19921;-64
2023/01/02 07:01:30;;;;;;;1.95;1.17;;;16.70;75.90;;;;;;7409127;19;19946;-64
2023/01/02 07:03:59;;;;;;;1.80;0.75;;;16.70;75.90;;;;;;7407082;19;19918;-64
2023/01/02 07:06:29;;;;;;;1.80;0.60;;;16.70;76.00;;;;;;7406914;19;19918;-64
2023/01/02 07:08:58;;;;;;;1.73;0.47;;;16.70;76.00;;;;;;7409439;19;19927;-64
2023/01/02 07:11:30;;;;;;;2.17;0.60;;;16.60;76.00;;;;;;7409300;19;19921;-64
2023/01/02 07:13:59;;;;;;;1.67;0.43;;;16.70;76.10;;;;;;7409186;19;19921;-63
2023/01/02 07:16:28;;;;;;;2.22;0.68;;;16.70;76.10;;;;;;7409135;19;19922;-64
2023/01/02 07:18:57;;;;;;;1.90;0.57;;;16.70;76.10;;;;;;7408484;19;19965;-63
2023/01/02 07:21:26;;;;;;;2.03;0.32;;;16.70;76.10;;;;;;7408633;19;19919;-64
2023/01/02 07:23:55;;;;;;;2.05;0.40;;;16.80;76.20;;;;;;7408634;19;19915;-64
2023/01/02 07:26:25;;;;;;;1.73;0.40;;;16.80;76.10;;;;;;7407180;19;19914;-64
2023/01/02 07:28:56;;;;;;;1.63;0.22;;;16.90;76.20;;;;;;7408460;19;20335;-64
2023/01/02 07:31:28;;;;;;;1.90;0.28;;;16.90;76.20;;;;;;7407378;19;19926;-64
2023/01/02 07:33:57;;;;;;;1.90;1.00;;;16.90;76.20;;;;;;7408277;19;19911;-64
2023/01/02 07:36:30;;;;;;;2.75;0.52;;;17.00;76.20;;;;;;7409217;19;19998;-64
2023/01/02 07:38:59;;;;;;;1.67;0.60;;;17.00;76.20;;;;;;7408433;19;19918;-64
2023/01/02 07:41:28;;;;;;;2.15;0.88;;;17.00;76.20;;;;;;7409427;19;19919;-64
2023/01/02 07:44:00;;;;;;;1.92;0.52;;;17.00;76.20;;;;;;7407245;19;19939;-64
2023/01/02 07:46:29;;;;;;;1.45;0.30;;;17.10;76.20;;;;;;7406240;19;19922;-64
2023/01/02 07:48:58;;;;;;;1.70;0.32;;;17.10;76.20;;;;;;7408449;19;20339;-64
2023/01/02 07:51:27;;;;;;;1.50;0.20;;;17.10;76.10;;;;;;7407434;19;19910;-63
2023/01/02 07:53:56;;;;;;;1.50;0.88;;;17.10;76.10;;;;;;7407907;19;19966;-64
2023/01/02 07:56:25;;;;;;;2.22;0.50;;;17.10;76.10;;;;;;7407828;19;19926;-63
2023/01/02 07:58:55;;;;;;;2.47;0.30;;;17.10;76.10;;;;;;7407557;19;19974;-64
2023/01/02 08:01:27;;;;;;;1.67;0.93;;;17.10;76.20;;;;;;7407684;19;19921;-63
2023/01/02 08:03:56;;;;;;;2.10;0.90;;;17.10;76.20;;;;;;7407455;19;20325;-63
2023/01/02 08:06:25;;;;;;;2.75;0.70;;;17.10;76.20;;;;;;7406123;19;19914;-64
2023/01/02 08:08:54;;;;;;;2.45;0.82;;;17.10;76.20;;;;;;7407990;19;19935;-64
2023/01/02 08:11:24;;;;;;;1.63;1.25;;;17.10;76.20;;;;;;7406131;19;19918;-64
2023/01/02 08:13:53;;;;;;;1.33;0.43;;;17.10;76.20;;;;;;7407595;19;19918;-63
2023/01/02 08:16:26;;;;;;;1.75;0.68;;;17.10;76.20;;;;;;7407104;19;19986;-63
2023/01/02 08:18:56;;;;;;;1.85;0.45;;;17.10;76.20;;;;;;7407240;19;20384;-64
2023/01/02 08:21:26;;;;;;;1.63;0.57;;;17.00;76.20;;;;;;7406785;19;19915;-63
2023/01/02 08:23:55;;;;;;;1.50;0.57;;;17.00;76.20;;;;;;7406900;19;19970;-64
2023/01/02 08:26:24;;;;;;;1.58;0.52;;;17.00;76.20;;;;;;7405613;19;19947;-64
2023/01/02 08:28:54;;;;;;;1.98;0.22;;;17.00;76.20;;;;;;7407257;19;19918;-64
2023/01/02 08:31:26;;;;;;;1.10;0.52;;;17.00;76.20;;;;;;7406764;19;19919;-64
2023/01/02 08:33:55;;;;;;;1.92;0.45;;;17.00;76.30;;;;;;7405888;19;19922;-64
2023/01/02 08:36:25;;;;;;;1.50;0.30;;;17.00;76.30;;;;;;7410682;19;19921;-64
2023/01/02 08:38:54;;;;;;;2.17;0.28;;;17.00;76.30;;;;;;7407045;19;19919;-63
2023/01/02 08:41:33;;;;;;;1.30;0.38;;;16.90;76.30;;;;;;7404263;19;19939;-63
2023/01/02 08:44:02;;;;;;;1.73;0.32;;;16.90;76.30;;;;;;7405693;19;19966;-64
2023/01/02 08:46:36;;;;;;;1.40;0.40;;;16.90;76.30;;;;;;7405521;19;19966;-64
2023/01/02 08:49:06;;;;;;;1.80;0.63;;;16.90;76.40;;;;;;7405200;19;19910;-64
2023/01/02 08:51:35;;;;;;;1.30;0.60;;;16.90;76.40;;;;;;7405938;19;19914;-64
2023/01/02 08:54:04;;;;;;;1.13;0.40;;;16.90;76.40;;;;;;7406403;19;19918;-64
2023/01/02 08:56:35;;;;;;;1.38;0.30;;;16.80;76.40;;;;;;7405839;19;20338;-64
2023/01/02 08:59:08;;;;;;;1.48;0.68;;;16.80;76.40;;;;;;7406218;19;19931;-64
2023/01/02 09:01:41;;;;;;;1.25;0.60;;;16.90;76.40;;;;;;7404169;19;20269;-63
2023/01/02 09:04:11;;;;;;;1.67;0.57;;;16.80;76.40;;;;;;7404056;19;20253;-64
2023/01/02 09:06:40;;;;;;;1.75;0.32;;;16.80;76.40;;;;;;7405852;19;19926;-64
2023/01/02 09:09:11;;;;;;;1.15;0.60;;;16.80;76.40;;;;;;7408630;19;19925;-64
2023/01/02 09:11:44;;;;;;;1.10;0.32;;;16.80;76.50;;;;;;7405882;19;20452;-63
2023/01/02 09:14:13;;;;;;;1.10;0.30;;;16.80;76.40;;;;;;7405819;19;19922;-63
2023/01/02 09:16:44;;;;;;;1.48;0.20;;;16.80;76.50;;;;;;7405928;19;19911;-64
2023/01/02 09:19:13;;;;;;;1.58;0.20;;;16.70;76.40;;;;;;7403784;19;19938;-63
2023/01/02 09:21:43;;;;;;;2.00;0.93;;;16.70;76.40;;;;;;7405178;19;20314;-63
2023/01/02 09:24:13;;;;;;;1.10;0.50;;;16.70;76.40;;;;;;7405158;19;19929;-63
2023/01/02 09:26:43;;;;;;;1.40;0.20;;;16.70;76.40;;;;;;7404256;19;19922;-63
2023/01/02 09:29:13;;;;;;;1.40;0.28;;;16.70;76.40;;;;;;7405209;19;19918;-64
2023/01/02 09:31:44;;;;;;;1.15;0.25;;;16.70;76.50;;;;;;7403397;19;19930;-64
2023/01/02 09:34:13;;;;;;;0.95;0.25;;;16.70;76.40;;;;;;7404133;19;19924;-64
2023/01/02 09:36:42;;;;;;;1.45;0.30;;;16.70;76.40;;;;;;7408177;19;19974;-64
2023/01/02 09:39:12;;;;;;;1.00;0.43;;;16.70;76.50;;;;;;7404886;19;19987;-64
2023/01/02 09:41:42;;;;;;;;;;;16.70;76.50;;;;;;7407708;19;20313;-64
2023/01/02 09:44:17;;;;;;;0.70;0.20;;;16.70;76.50;;;;;;7403882;19;19925;-64
2023/01/02 09:46:53;;;;;;;0.70;0.35;;;16.70;76.50;;;;;;7404081;19;20348;-63
2023/01/02 09:49:23;;;;;;;;;;;16.60;76.50;;;;;;7406813;19;19927;-63
2023/01/02 09:51:52;;;;;;;1.60;0.32;;;16.60;76.50;;;;;;7403198;19;19970;-63
2023/01/02 09:54:26;;;;;;;0.90;0.10;;;16.60;76.40;;;;;;7404376;19;19938;-63
2023/01/02 09:57:11;;;;;;;0.95;0.10;;;16.70;76.50;;;;;;7404994;19;20337;-64
2023/01/02 09:59:47;;;;;;;1.50;0.22;;;16.60;76.50;;;;;;7404029;19;20341;-64
2023/01/02 10:02:35;;;;;;;1.00;0.35;;;16.70;76.50;;;;;;7404276;19;19911;-63
2023/01/02 10:05:29;;;;;;;0.68;0.10;;;16.70;76.50;;;;;;7404524;19;19918;-64
2023/01/02 10:08:03;;;;;;;1.00;0.20;;;16.70;76.50;;;;;;7401151;19;19914;-64
2023/01/02 10:10:38;;;;;;;0.68;0.20;;;16.70;76.50;;;;;;7402259;19;19925;-64
2023/01/02 10:13:14;;;;;;;1.85;0.20;;;16.80;76.50;;;;;;7403828;19;19931;-63
2023/01/02 10:15:47;;;;;;;1.13;0.10;;;16.80;76.50;;;;;;7403462;19;19921;-64
2023/01/02 10:18:25;;;;;;;1.00;0.20;;;16.90;76.50;;;;;;7404065;19;19935;-64
2023/01/02 10:20:57;;;;;;;1.45;0.75;;;16.90;76.50;;;;;;7401731;19;20282;-63
2023/01/02 10:23:31;;;;;;;0.75;0.10;;;16.90;76.50;;;;;;7403635;19;19988;-64
2023/01/02 10:26:05;;;;;;;0.77;0.25;;;16.90;76.40;;;;;;7402586;19;19949;-64
2023/01/02 10:28:42;;;;;;;0.70;0.10;;;17.00;76.40;;;;;;7403744;19;19934;-63
2023/01/02 10:31:18;;;;;;;0.70;0.13;;;17.00;76.30;;;;;;7403143;19;20390;-63
2023/01/02 10:33:54;;;;;;;0.82;0.20;;;17.00;76.30;;;;;;7402945;19;20376;-63
2023/01/02 10:36:26;;;;;;;1.25;0.40;;;17.00;76.30;;;;;;7405032;19;19930;-64
2023/01/02 10:38:58;;;;;;;1.17;0.57;;;17.00;76.20;;;;;;7402726;19;19933;-64
2023/01/02 10:41:28;;;;;;;1.05;0.32;;;17.00;76.20;;;;;;7402969;19;19942;-64
2023/01/02 10:44:01;;;;;;;0.85;0.43;;;17.00;76.20;;;;;;7402148;19;19914;-63
2023/01/02 10:46:32;;;;;;;1.17;0.20;;;17.00;76.10;;;;;;7402161;19;19938;-64
2023/01/02 10:49:05;;;;;;;0.60;0.10;;;17.10;76.10;;;;;;7400888;19;19918;-64
2023/01/02 10:51:36;;;;;;;1.13;0.57;;;17.00;76.10;;;;;;7401826;19;19946;-64
2023/01/02 10:54:07;;;;;;;1.35;0.55;;;17.00;76.00;;;;;;7402590;19;19919;-64
2023/01/02 10:56:38;;;;;;;0.90;0.40;;;17.00;76.00;;;;;;7402597;19;19922;-63
2023/01/02 10:59:22;;;;;;;0.70;0.10;;;17.00;76.00;;;;;;7402437;19;19919;-64
2023/01/02 11:01:53;;;;;;;1.20;0.50;;;17.00;76.00;;;;;;7402528;19;19918;-64
2023/01/02 11:04:27;;;;;;;0.73;0.20;;;17.00;76.00;;;;;;7404045;19;19914;-64
2023/01/02 11:06:58;;;;;;;0.85;0.20;;;17.00;76.00;;;;;;7408704;19;20434;-64
2023/01/02 11:09:29;;;;;;;0.80;0.25;;;17.00;76.00;;;;;;7409084;19;19925;-64
2023/01/02 11:12:01;;;;;;;1.38;0.50;;;17.00;76.00;;;;;;7409155;19;19938;-64
2023/01/02 11:14:32;;;;;;;0.60;0.10;;;16.90;75.90;;;;;;7408757;19;19926;-64
2023/01/02 11:17:07;;;;;;;1.23;0.50;;;16.90;76.00;;;;;;7408838;19;19949;-64
2023/01/02 11:19:46;;;;;;;0.65;0.22;;;16.90;76.00;;;;;;7408813;19;19914;-64
2023/01/02 11:22:18;;;;;;;1.17;0.60;;;16.90;76.00;;;;;;7408443;19;19919;-64
2023/01/02 11:25:00;;;;;;;0.55;0.10;;;16.90;76.00;;;;;;7409141;19;19946;-64
2023/01/02 11:27:33;;;;;;;1.40;0.43;;;16.90;76.00;;;;;;7405581;19;19927;-64
2023/01/02 11:30:03;;;;;;;0.82;0.22;;;16.90;76.10;;;;;;7409304;19;19945;-64
2023/01/02 11:32:40;;;;;;;1.02;0.28;;;16.80;76.00;;;;;;7408450;19;19927;-64
2023/01/02 11:35:35;;;;;;;0.95;0.20;;;16.80;76.00;;;;;;7409855;19;19922;-64
2023/01/02 11:38:04;;;;;;;0.52;0.10;;;16.80;76.00;;;;;;7408348;19;19978;-63
2023/01/02 11:40:34;;;;;;;0.60;0.13;;;16.80;76.00;;;;;;7408285;19;19932;-64
2023/01/02 11:45:48;;;;;;;0.35;0.00;;;16.80;76.00;;;;;;7406199;19;19991;-63
2023/01/02 11:48:23;;;;;;;0.82;0.22;;;16.80;76.00;;;;;;7405641;19;20478;-64
2023/01/02 11:50:55;;;;;;;1.10;0.22;;;16.80;76.00;;;;;;7408029;19;19914;-64
2023/01/02 11:53:34;;;;;;;0.73;0.20;;;16.80;76.00;;;;;;7408090;19;19922;-63
2023/01/02 11:56:11;;;;;;;0.77;0.47;;;16.80;76.00;;;;;;7407869;19;19915;-64
2023/01/02 11:58:51;;;;;;;1.00;0.40;;;16.70;75.90;;;;;;7407565;19;19915;-63
2023/01/02 12:01:26;;;;;;;1.48;0.10;;;16.70;75.90;;;;;;7407829;19;19915;-64
2023/01/02 12:03:57;;;;;;;0.60;0.20;;;16.70;75.90;;;;;;7410084;19;19914;-64
2023/01/02 12:06:41;;;;;;;0.65;0.10;;;16.80;76.00;;;;;;7407213;19;19992;-64
2023/01/02 12:09:13;;;;;;;0.95;0.30;;;16.70;76.00;;;;;;7407272;19;19919;-64
2023/01/02 12:12:15;;;;;;;1.30;0.22;;;16.70;76.00;;;;;;7407277;19;20328;-64
2023/01/02 12:15:00;;;;;;;1.38;0.60;;;16.70;76.00;;;;;;7406947;19;19974;-64
2023/01/02 12:17:43;;;;;;;0.60;0.22;;;16.70;76.00;;;;;;7404525;19;19923;-64
2023/01/02 12:20:28;;;;;;;1.27;0.60;;;16.70;76.00;;;;;;7407152;19;19919;-63
2023/01/02 12:23:39;;;;;;;1.17;0.47;;;16.70;76.00;;;;;;7406693;19;19914;-64
2023/01/02 12:26:13;;;;;;;0.98;0.13;;;16.70;76.00;;;;;;7403922;19;19926;-65
2023/01/02 12:29:15;;;;;;;1.02;0.13;;;16.70;76.00;;;;;;7404986;19;19986;-63
2023/01/02 12:32:03;;;;;;;0.68;0.35;;;16.70;76.00;;;;;;7406939;19;19923;-64
2023/01/02 12:34:38;;;;;;;;;;;16.70;76.00;;;;;;7412423;19;20545;-64
2023/01/02 12:37:30;;;;;;;0.47;0.10;;;16.70;76.00;;;;;;7406465;19;19914;-64
2023/01/02 12:40:27;;;;;;;0.95;0.10;;;16.60;75.90;;;;;;7406551;19;19926;-64
2023/01/02 12:43:12;;;;;;;0.93;0.13;;;16.60;75.90;;;;;;7406563;19;19982;-64
2023/01/02 12:45:50;;;;;;;1.60;0.10;;;16.70;76.00;;;;;;7406502;19;19922;-64
2023/01/02 12:48:35;;;;;;;0.55;0.10;;;16.70;76.00;;;;;;7404809;19;19934;-63
2023/01/02 12:51:19;;;;;;;0.70;0.10;;;16.70;76.00;;;;;;7406553;19;19946;-64
2023/01/02 12:54:09;;;;;;;0.95;0.50;;;16.70;76.00;;;;;;7406306;19;19922;-64
2023/01/02 12:56:50;;;;;;;0.57;0.10;;;16.70;76.00;;;;;;7405607;19;19935;-64
2023/01/02 12:59:40;;;;;;;0.85;0.40;;;16.80;76.00;;;;;;7406189;19;19926;-64
2023/01/02 13:02:20;;;;;;;0.60;0.22;;;16.80;76.00;;;;;;7406644;19;19921;-64
2023/01/02 13:04:54;;;;;;;1.35;0.22;;;16.80;76.00;;;;;;7408203;19;19914;-64
2023/01/02 13:07:30;;;;;;;0.90;0.22;;;16.90;76.00;;;;;;7405411;19;19919;-64
2023/01/02 13:10:04;;;;;;;1.85;0.10;;;16.90;76.00;;;;;;7405914;19;19938;-64
2023/01/02 13:12:37;;;;;;;0.60;0.10;;;16.90;75.90;;;;;;7405742;19;19918;-64
2023/01/02 13:15:17;;;;;;;1.05;0.47;;;17.00;75.90;;;;;;7405495;19;19915;-64
2023/01/02 13:17:55;;;;;;;1.40;0.13;;;17.00;75.90;;;;;;7405576;19;19915;-64
2023/01/02 13:20:33;;;;;;;0.95;0.00;;;17.00;75.80;;;;;;7406081;19;19915;-63
2023/01/02 13:23:10;;;;;;;0.98;0.55;;;17.00;75.70;;;;;;7405370;19;20282;-64
2023/01/02 13:25:45;;;;;;;0.57;0.10;;;17.00;76.30;;;;;;7404792;19;19970;-64
2023/01/02 13:28:17;;;;;;;0.80;0.10;;;17.00;75.70;;;;;;7402821;19;19915;-64